createdAt,value
2018-04-08T00:01:29.030Z,9.75
2018-04-08T00:03:54.766Z,9.61
2018-04-08T00:06:20.514Z,9.49
2018-04-08T00:08:46.281Z,9.34
2018-04-08T00:11:12.038Z,9.30
2018-04-08T00:13:37.772Z,9.13
2018-04-08T00:16:03.526Z,8.96
2018-04-08T00:18:29.262Z,8.85
2018-04-08T00:20:54.989Z,8.83
2018-04-08T00:23:20.739Z,8.75
2018-04-08T00:25:46.519Z,8.69
2018-04-08T00:28:12.259Z,8.61
2018-04-08T00:30:37.990Z,8.43
2018-04-08T00:33:03.734Z,8.54
2018-04-08T00:35:29.468Z,8.58
2018-04-08T00:37:55.214Z,8.43
2018-04-08T00:40:20.953Z,8.37
2018-04-08T00:42:46.707Z,8.26
2018-04-08T00:45:12.458Z,8.30
2018-04-08T00:47:38.210Z,8.33
2018-04-08T00:50:03.965Z,8.33
2018-04-08T00:52:29.712Z,8.33
2018-04-08T00:54:55.470Z,8.35
2018-04-08T00:57:21.217Z,8.38
2018-04-08T00:59:46.961Z,8.50
2018-04-08T01:02:12.711Z,8.59
2018-04-08T01:04:38.442Z,8.50
2018-04-08T01:07:04.202Z,8.56
2018-04-08T01:09:29.921Z,8.52
2018-04-08T01:11:55.650Z,8.54
2018-04-08T01:14:21.376Z,8.56
2018-04-08T01:16:47.126Z,8.63
2018-04-08T01:19:12.853Z,8.64
2018-04-08T01:21:38.602Z,8.53
2018-04-08T01:24:04.336Z,8.50
2018-04-08T01:26:30.066Z,8.44
2018-04-08T01:28:55.798Z,8.39
2018-04-08T01:31:21.545Z,8.35
2018-04-08T01:33:47.299Z,8.33
2018-04-08T01:36:13.057Z,8.38
2018-04-08T01:38:38.794Z,8.29
2018-04-08T01:41:04.531Z,8.24
2018-04-08T01:43:30.268Z,8.40
2018-04-08T01:45:56.004Z,8.38
2018-04-08T01:48:21.756Z,8.30
2018-04-08T01:50:47.491Z,8.48
2018-04-08T01:53:13.238Z,8.55
2018-04-08T01:55:38.984Z,8.51
2018-04-08T01:58:04.730Z,8.41
2018-04-08T02:00:30.459Z,8.23
2018-04-08T02:02:56.190Z,8.13
2018-04-08T02:05:21.937Z,8.02
2018-04-08T02:07:47.695Z,7.88
2018-04-08T02:10:13.413Z,7.77
2018-04-08T02:12:39.142Z,7.73
2018-04-08T02:15:04.874Z,7.77
2018-04-08T02:17:30.621Z,7.71
2018-04-08T02:19:56.352Z,7.64
2018-04-08T02:22:22.085Z,7.53
2018-04-08T02:24:47.814Z,7.42
2018-04-08T02:27:13.574Z,7.42
2018-04-08T02:29:39.311Z,7.53
2018-04-08T02:32:05.067Z,7.60
2018-04-08T02:34:30.801Z,7.73
2018-04-08T02:36:56.560Z,7.82
2018-04-08T02:39:22.316Z,7.78
2018-04-08T02:41:48.074Z,7.88
2018-04-08T02:44:13.805Z,7.94
2018-04-08T02:46:39.557Z,7.92
2018-04-08T02:49:05.307Z,7.93
2018-04-08T02:51:31.040Z,7.94
2018-04-08T02:53:56.807Z,7.91
2018-04-08T02:56:22.545Z,7.84
2018-04-08T02:58:48.290Z,7.83
2018-04-08T03:01:14.030Z,7.75
2018-04-08T03:03:39.787Z,7.83
2018-04-08T03:06:05.557Z,7.89
2018-04-08T03:08:31.307Z,7.77
2018-04-08T03:10:57.050Z,7.72
2018-04-08T03:13:22.806Z,7.71
2018-04-08T03:15:48.558Z,7.77
2018-04-08T03:18:14.308Z,7.83
2018-04-08T03:20:40.068Z,7.95
2018-04-08T03:23:05.814Z,7.98
2018-04-08T03:25:31.560Z,7.90
2018-04-08T03:27:57.309Z,7.82
2018-04-08T03:30:23.038Z,7.70
2018-04-08T03:32:48.790Z,7.68
2018-04-08T03:35:14.522Z,7.92
2018-04-08T03:37:40.267Z,8.02
2018-04-08T03:40:05.989Z,8.15
2018-04-08T03:42:31.734Z,8.21
2018-04-08T03:44:57.465Z,8.12
2018-04-08T03:47:23.228Z,8.05
2018-04-08T03:49:48.994Z,7.96
2018-04-08T03:52:14.739Z,7.94
2018-04-08T03:54:40.513Z,7.89
2018-04-08T03:57:06.313Z,7.80
2018-04-08T03:59:32.075Z,7.66
2018-04-08T04:01:57.827Z,7.62
2018-04-08T04:04:23.587Z,7.66
2018-04-08T04:06:49.340Z,7.70
2018-04-08T04:09:15.088Z,7.82
2018-04-08T04:11:40.826Z,7.82
2018-04-08T04:14:06.581Z,7.74
2018-04-08T04:16:32.342Z,7.88
2018-04-08T04:19:10.433Z,7.96
2018-04-08T04:21:48.590Z,7.93
2018-04-08T04:24:26.650Z,7.85
2018-04-08T04:26:52.390Z,7.93
2018-04-08T04:29:18.165Z,7.91
2018-04-08T04:31:43.919Z,7.88
2018-04-08T04:34:09.670Z,7.84
2018-04-08T04:36:35.426Z,7.74
2018-04-08T04:39:01.170Z,7.54
2018-04-08T04:41:26.910Z,7.26
2018-04-08T04:43:52.661Z,7.14
2018-04-08T04:46:18.402Z,7.13
2018-04-08T04:48:44.158Z,7.10
2018-04-08T04:51:09.899Z,7.00
2018-04-08T04:53:35.674Z,7.01
2018-04-08T04:56:01.434Z,7.04
2018-04-08T04:58:27.181Z,7.04
2018-04-08T05:00:52.926Z,7.07
2018-04-08T05:03:18.698Z,7.08
2018-04-08T05:05:44.448Z,7.12
2018-04-08T05:08:10.192Z,7.19
2018-04-08T05:10:35.953Z,7.20
2018-04-08T05:13:01.689Z,7.22
2018-04-08T05:15:27.428Z,7.36
2018-04-08T05:17:53.160Z,7.51
2018-04-08T05:20:18.909Z,7.70
2018-04-08T05:22:44.671Z,7.84
2018-04-08T05:25:10.417Z,8.02
2018-04-08T05:27:36.146Z,8.17
2018-04-08T05:30:01.890Z,8.34
2018-04-08T05:32:27.631Z,8.39
2018-04-08T05:34:53.381Z,8.43
2018-04-08T05:37:19.132Z,8.46
2018-04-08T05:39:44.894Z,8.52
2018-04-08T05:42:10.637Z,8.56
2018-04-08T05:44:36.373Z,8.65
2018-04-08T05:47:02.117Z,8.68
2018-04-08T05:49:27.873Z,8.80
2018-04-08T05:51:53.633Z,8.90
2018-04-08T05:54:19.402Z,8.99
2018-04-08T05:56:45.146Z,9.08
2018-04-08T05:59:10.881Z,9.18
2018-04-08T06:01:36.630Z,9.34
2018-04-08T06:04:02.391Z,9.49
2018-04-08T06:06:28.149Z,9.71
2018-04-08T06:08:53.902Z,10.05
2018-04-08T06:11:19.634Z,10.07
2018-04-08T06:13:45.365Z,10.29
2018-04-08T06:16:11.125Z,10.41
2018-04-08T06:18:36.872Z,10.48
2018-04-08T06:21:02.622Z,10.68
2018-04-08T06:23:28.362Z,10.76
2018-04-08T06:25:54.118Z,10.75
2018-04-08T06:28:19.854Z,10.79
2018-04-08T06:30:45.613Z,10.93
2018-04-08T06:33:11.354Z,11.11
2018-04-08T06:35:37.134Z,11.32
2018-04-08T06:38:02.908Z,11.38
2018-04-08T06:40:28.660Z,11.44
2018-04-08T06:42:54.401Z,11.84
2018-04-08T06:45:20.142Z,11.98
2018-04-08T06:47:45.902Z,12.14
2018-04-08T06:50:11.675Z,12.11
2018-04-08T06:52:37.442Z,12.27
2018-04-08T06:55:03.202Z,12.42
2018-04-08T06:57:28.936Z,12.49
2018-04-08T06:59:54.681Z,12.60
2018-04-08T07:02:20.421Z,12.80
2018-04-08T07:04:46.174Z,12.82
2018-04-08T07:07:11.927Z,12.93
2018-04-08T07:09:37.702Z,13.02
2018-04-08T07:12:03.487Z,13.13
2018-04-08T07:14:29.202Z,13.12
2018-04-08T07:16:54.942Z,13.30
2018-04-08T07:19:20.681Z,13.46
2018-04-08T07:21:46.425Z,13.48
2018-04-08T07:24:12.162Z,13.54
2018-04-08T07:26:37.906Z,13.69
2018-04-08T07:29:03.634Z,13.83
2018-04-08T07:31:29.375Z,14.03
2018-04-08T07:33:55.104Z,14.28
2018-04-08T07:36:20.842Z,14.21
2018-04-08T07:38:46.575Z,14.22
2018-04-08T07:41:12.319Z,14.31
2018-04-08T07:43:38.047Z,14.51
2018-04-08T07:46:03.796Z,14.89
2018-04-08T07:48:29.533Z,14.89
2018-04-08T07:50:55.284Z,15.20
2018-04-08T07:53:21.038Z,15.50
2018-04-08T07:55:46.784Z,15.82
2018-04-08T07:58:12.510Z,15.69
2018-04-08T08:00:38.249Z,15.74
2018-04-08T08:03:03.984Z,15.96
2018-04-08T08:05:29.722Z,16.26
2018-04-08T08:07:55.453Z,16.63
2018-04-08T08:10:21.186Z,16.87
2018-04-08T08:12:46.905Z,16.69
2018-04-08T08:15:12.658Z,16.96
2018-04-08T08:17:38.394Z,16.76
2018-04-08T08:20:04.146Z,16.95
2018-04-08T08:22:29.894Z,17.17
2018-04-08T08:24:55.621Z,17.11
2018-04-08T08:27:21.376Z,17.37
2018-04-08T08:29:47.150Z,17.77
2018-04-08T08:32:12.899Z,17.46
2018-04-08T08:34:38.637Z,17.46
2018-04-08T08:37:04.391Z,17.35
2018-04-08T08:39:30.122Z,17.64
2018-04-08T08:41:55.876Z,17.85
2018-04-08T08:44:21.599Z,17.63
2018-04-08T08:46:47.350Z,17.74
2018-04-08T08:49:13.130Z,18.08
2018-04-08T08:51:38.853Z,18.27
2018-04-08T08:54:04.596Z,18.67
2018-04-08T08:56:30.341Z,18.57
2018-04-08T08:58:56.109Z,18.60
2018-04-08T09:01:21.858Z,18.36
2018-04-08T09:03:47.607Z,18.35
2018-04-08T09:06:13.364Z,18.99
2018-04-08T09:08:39.102Z,18.75
2018-04-08T09:11:04.848Z,18.53
2018-04-08T09:13:30.589Z,18.44
2018-04-08T09:15:56.344Z,18.71
2018-04-08T09:18:22.122Z,18.98
2018-04-08T09:20:47.886Z,19.01
2018-04-08T09:23:13.631Z,19.06
2018-04-08T09:25:39.382Z,19.45
2018-04-08T09:28:05.270Z,19.25
2018-04-08T09:30:31.026Z,18.97
2018-04-08T09:32:57.566Z,18.90
2018-04-08T09:35:23.310Z,19.28
2018-04-08T09:37:49.561Z,19.75
2018-04-08T09:40:15.333Z,19.53
2018-04-08T09:42:41.127Z,19.96
2018-04-08T09:45:06.878Z,20.38
2018-04-08T09:47:32.646Z,19.81
2018-04-08T09:49:58.392Z,19.53
2018-04-08T09:52:24.152Z,19.70
2018-04-08T09:54:50.072Z,20.30
2018-04-08T09:57:16.235Z,20.62
2018-04-08T09:59:41.997Z,20.09
2018-04-08T10:02:13.946Z,20.69
2018-04-08T10:04:39.699Z,20.96
2018-04-08T10:07:05.484Z,20.22
2018-04-08T10:09:32.047Z,20.40
2018-04-08T10:11:57.813Z,20.49
2018-04-08T10:14:23.560Z,20.28
2018-04-08T10:16:49.325Z,20.82
2018-04-08T10:19:15.074Z,21.35
2018-04-08T10:21:40.849Z,20.92
2018-04-08T10:24:06.603Z,21.55
2018-04-08T10:26:32.337Z,21.64
2018-04-08T10:28:58.147Z,20.75
2018-04-08T10:31:23.905Z,20.73
2018-04-08T10:33:49.685Z,21.13
2018-04-08T10:36:15.440Z,20.91
2018-04-08T10:38:41.201Z,21.03
2018-04-08T10:41:06.972Z,21.63
2018-04-08T10:43:32.728Z,21.08
2018-04-08T10:45:58.517Z,21.84
2018-04-08T10:48:24.289Z,22.38
2018-04-08T10:50:50.044Z,22.25
2018-04-08T10:53:15.795Z,22.18
2018-04-08T10:55:41.550Z,22.70
2018-04-08T10:58:07.339Z,21.92
2018-04-08T11:00:33.077Z,22.67
2018-04-08T11:02:58.836Z,22.32
2018-04-08T11:05:24.578Z,22.74
2018-04-08T11:07:50.336Z,22.75
2018-04-08T11:10:16.131Z,22.54
2018-04-08T11:12:41.849Z,22.81
2018-04-08T11:15:07.596Z,22.67
2018-04-08T11:17:33.353Z,22.63
2018-04-08T11:19:59.082Z,23.16
2018-04-08T11:22:24.864Z,23.10
2018-04-08T11:24:50.621Z,23.20
2018-04-08T11:27:16.380Z,23.17
2018-04-08T11:29:42.150Z,22.90
2018-04-08T11:32:07.881Z,23.30
2018-04-08T11:34:34.572Z,23.58
2018-04-08T11:37:00.315Z,24.13
2018-04-08T11:39:26.076Z,23.89
2018-04-08T11:41:51.816Z,23.80
2018-04-08T11:44:17.578Z,23.61
2018-04-08T11:46:43.330Z,23.66
2018-04-08T11:49:09.086Z,24.14
2018-04-08T11:51:34.853Z,23.97
2018-04-08T11:54:00.601Z,23.84
2018-04-08T11:56:26.356Z,23.63
2018-04-08T11:58:52.135Z,24.45
2018-04-08T12:01:17.875Z,24.47
2018-04-08T12:03:43.641Z,24.02
2018-04-08T12:06:09.378Z,24.14
2018-04-08T12:08:35.145Z,24.27
2018-04-08T12:11:00.887Z,24.46
2018-04-08T12:13:26.625Z,24.24
2018-04-08T12:15:52.394Z,24.93
2018-04-08T12:18:18.145Z,23.96
2018-04-08T12:20:43.942Z,23.97
2018-04-08T12:23:09.680Z,24.11
2018-04-08T12:25:35.440Z,24.42
2018-04-08T12:28:01.206Z,23.90
2018-04-08T12:30:26.974Z,24.20
2018-04-08T12:32:52.729Z,24.60
2018-04-08T12:35:18.500Z,24.92
2018-04-08T12:37:44.230Z,24.81
2018-04-08T12:40:09.987Z,24.25
2018-04-08T12:42:35.722Z,24.82
2018-04-08T12:45:01.473Z,24.66
2018-04-08T12:47:27.223Z,24.57
2018-04-08T12:49:52.968Z,24.63
2018-04-08T12:52:18.695Z,24.77
2018-04-08T12:54:44.526Z,24.97
2018-04-08T12:57:10.351Z,24.94
2018-04-08T12:59:36.122Z,25.04
2018-04-08T13:02:01.874Z,24.82
2018-04-08T13:04:27.683Z,24.63
2018-04-08T13:06:53.438Z,24.88
2018-04-08T13:09:19.183Z,24.77
2018-04-08T13:11:44.959Z,24.91
2018-04-08T13:14:10.772Z,25.08
2018-04-08T13:16:36.505Z,24.56
2018-04-08T13:19:02.266Z,24.82
2018-04-08T13:21:28.031Z,24.92
2018-04-08T13:23:53.774Z,24.97
2018-04-08T13:26:19.526Z,25.08
2018-04-08T13:28:45.265Z,25.09
2018-04-08T13:31:11.029Z,24.95
2018-04-08T13:33:36.767Z,24.80
2018-04-08T13:36:02.521Z,25.00
2018-04-08T13:38:28.258Z,24.74
2018-04-08T13:40:54.003Z,25.14
2018-04-08T13:43:19.753Z,25.89
2018-04-08T13:45:45.515Z,25.37
2018-04-08T13:48:11.249Z,24.93
2018-04-08T13:50:36.990Z,24.71
2018-04-08T13:53:02.729Z,25.10
2018-04-08T13:55:28.502Z,25.16
2018-04-08T13:57:54.251Z,24.90
2018-04-08T14:00:19.985Z,24.69
2018-04-08T14:02:45.738Z,24.63
2018-04-08T14:05:11.469Z,24.88
2018-04-08T14:07:37.202Z,24.61
2018-04-08T14:10:02.961Z,25.03
2018-04-08T14:12:28.710Z,24.56
2018-04-08T14:14:54.425Z,24.40
2018-04-08T14:17:20.168Z,24.46
2018-04-08T14:19:45.958Z,24.49
2018-04-08T14:22:11.706Z,24.17
2018-04-08T14:24:37.516Z,24.35
2018-04-08T14:27:03.209Z,24.19
2018-04-08T14:29:28.981Z,23.98
2018-04-08T14:31:54.716Z,24.08
2018-04-08T14:34:20.445Z,24.52
2018-04-08T14:36:46.192Z,24.20
2018-04-08T14:39:11.927Z,24.31
2018-04-08T14:41:37.670Z,24.06
2018-04-08T14:44:03.412Z,24.04
2018-04-08T14:46:29.159Z,24.26
2018-04-08T14:48:54.901Z,24.17
2018-04-08T14:51:20.680Z,24.32
2018-04-08T14:53:46.428Z,24.35
2018-04-08T14:56:12.184Z,23.90
2018-04-08T14:58:37.935Z,23.66
2018-04-08T15:01:03.707Z,23.71
2018-04-08T15:03:29.442Z,23.82
2018-04-08T15:05:55.201Z,23.70
2018-04-08T15:08:20.986Z,23.67
2018-04-08T15:10:46.733Z,23.53
2018-04-08T15:13:12.494Z,23.89
2018-04-08T15:15:38.246Z,23.85
2018-04-08T15:18:04.012Z,23.78
2018-04-08T15:20:29.772Z,23.53
2018-04-08T15:22:55.534Z,23.40
2018-04-08T15:25:21.275Z,23.26
2018-04-08T15:27:47.028Z,23.29
2018-04-08T15:30:12.790Z,23.23
2018-04-08T15:32:38.561Z,23.10
2018-04-08T15:35:04.293Z,22.98
2018-04-08T15:37:30.053Z,22.88
2018-04-08T15:39:55.783Z,22.81
2018-04-08T15:42:21.541Z,22.77
2018-04-08T15:44:47.274Z,22.64
2018-04-08T15:47:13.036Z,22.59
2018-04-08T15:49:38.769Z,22.58
2018-04-08T15:52:04.534Z,22.59
2018-04-08T15:54:30.282Z,22.62
2018-04-08T15:56:56.078Z,22.62
2018-04-08T15:59:21.801Z,22.61
2018-04-08T16:01:47.549Z,22.52
2018-04-08T16:04:13.281Z,22.52
2018-04-08T16:06:39.042Z,22.64
2018-04-08T16:09:05.777Z,22.56
2018-04-08T16:11:31.535Z,22.61
2018-04-08T16:13:57.272Z,22.55
2018-04-08T16:16:24.432Z,22.56
2018-04-08T16:18:50.293Z,22.56
2018-04-08T16:21:16.042Z,22.60
2018-04-08T16:23:41.830Z,22.59
2018-04-08T16:26:07.567Z,22.51
2018-04-08T16:28:33.378Z,22.41
2018-04-08T16:30:59.157Z,22.32
2018-04-08T16:33:24.937Z,22.29
2018-04-08T16:35:50.691Z,22.19
2018-04-08T16:38:16.447Z,22.12
2018-04-08T16:40:42.224Z,22.04
2018-04-08T16:43:07.977Z,21.96
2018-04-08T16:45:33.755Z,21.85
2018-04-08T16:47:59.525Z,21.79
2018-04-08T16:50:25.271Z,21.73
2018-04-08T16:52:51.014Z,21.76
2018-04-08T16:55:16.779Z,21.73
2018-04-08T16:57:42.526Z,21.77
2018-04-08T17:00:08.309Z,21.80
2018-04-08T17:02:34.058Z,21.80
2018-04-08T17:04:59.810Z,21.80
2018-04-08T17:07:25.621Z,21.74
2018-04-08T17:09:51.373Z,21.67
2018-04-08T17:12:17.107Z,21.59
2018-04-08T17:14:42.866Z,21.52
2018-04-08T17:17:08.637Z,21.44
2018-04-08T17:19:34.383Z,21.36
2018-04-08T17:22:00.120Z,21.28
2018-04-08T17:24:25.892Z,21.15
2018-04-08T17:26:51.634Z,21.11
2018-04-08T17:29:17.394Z,20.96
2018-04-08T17:31:43.141Z,20.85
2018-04-08T17:34:08.895Z,20.70
2018-04-08T17:36:34.627Z,20.63
2018-04-08T17:39:00.378Z,20.57
2018-04-08T17:41:26.118Z,20.50
2018-04-08T17:43:51.861Z,20.39
2018-04-08T17:46:17.598Z,20.29
2018-04-08T17:48:43.346Z,20.22
2018-04-08T17:51:09.074Z,20.06
2018-04-08T17:53:34.821Z,19.94
2018-04-08T17:56:00.578Z,19.86
2018-04-08T17:58:26.310Z,19.70
2018-04-08T18:00:52.059Z,19.63
2018-04-08T18:03:17.817Z,19.56
2018-04-08T18:05:43.554Z,19.52
2018-04-08T18:08:09.290Z,19.42
2018-04-08T18:10:35.038Z,19.39
2018-04-08T18:13:00.770Z,19.31
2018-04-08T18:15:26.553Z,19.22
2018-04-08T18:17:52.278Z,19.22
2018-04-08T18:20:18.021Z,19.10
2018-04-08T18:22:43.759Z,19.06
2018-04-08T18:25:09.505Z,18.98
2018-04-08T18:27:35.249Z,18.90
2018-04-08T18:30:01.009Z,18.76
2018-04-08T18:32:26.737Z,18.66
2018-04-08T18:34:52.483Z,18.60
2018-04-08T18:37:18.219Z,18.56
2018-04-08T18:39:43.977Z,18.55
2018-04-08T18:42:09.716Z,18.51
2018-04-08T18:44:35.458Z,18.51
2018-04-08T18:47:01.201Z,18.38
2018-04-08T18:49:26.924Z,18.26
2018-04-08T18:51:52.684Z,18.14
2018-04-08T18:54:18.440Z,17.97
2018-04-08T18:56:44.195Z,17.82
2018-04-08T18:59:09.934Z,17.85
2018-04-08T19:01:35.671Z,17.84
2018-04-08T19:04:01.415Z,17.82
2018-04-08T19:06:27.173Z,17.81
2018-04-08T19:08:52.914Z,17.78
2018-04-08T19:11:18.654Z,17.70
2018-04-08T19:13:44.394Z,17.70
2018-04-08T19:16:10.166Z,17.82
2018-04-08T19:18:35.905Z,17.82
2018-04-08T19:21:01.651Z,17.76
2018-04-08T19:23:27.382Z,17.65
2018-04-08T19:25:53.128Z,17.62
2018-04-08T19:28:18.881Z,17.67
2018-04-08T19:30:44.636Z,17.66
2018-04-08T19:33:10.379Z,17.65
2018-04-08T19:35:36.125Z,17.61
2018-04-08T19:38:01.879Z,17.61
2018-04-08T19:40:27.615Z,17.53
2018-04-08T19:42:53.354Z,17.45
2018-04-08T19:45:19.101Z,17.40
2018-04-08T19:47:44.850Z,17.33
2018-04-08T19:50:10.591Z,17.23
2018-04-08T19:52:36.369Z,17.21
2018-04-08T19:55:02.177Z,17.16
2018-04-08T19:57:27.957Z,17.16
2018-04-08T19:59:53.683Z,17.19
2018-04-08T20:02:19.435Z,17.05
2018-04-08T20:04:45.175Z,16.96
2018-04-08T20:07:10.912Z,16.96
2018-04-08T20:09:36.730Z,16.84
2018-04-08T20:12:02.699Z,16.85
2018-04-08T20:14:28.457Z,16.76
2018-04-08T20:16:54.194Z,16.69
2018-04-08T20:19:19.925Z,16.78
2018-04-08T20:21:45.680Z,16.75
2018-04-08T20:24:13.306Z,16.64
2018-04-08T20:26:39.068Z,16.60
2018-04-08T20:29:04.811Z,16.53
2018-04-08T20:31:30.691Z,16.52
2018-04-08T20:33:56.448Z,16.54
2018-04-08T20:36:24.007Z,16.48
2018-04-08T20:38:49.826Z,16.43
2018-04-08T20:41:15.570Z,16.38
2018-04-08T20:43:41.316Z,16.40
2018-04-08T20:46:07.028Z,16.40
2018-04-08T20:48:32.793Z,16.38
2018-04-08T20:50:58.517Z,16.39
2018-04-08T20:53:24.270Z,16.32
2018-04-08T20:55:50.035Z,16.34
2018-04-08T20:58:15.782Z,16.32
2018-04-08T21:00:41.531Z,16.25
2018-04-08T21:03:07.266Z,16.27
2018-04-08T21:05:32.991Z,16.19
2018-04-08T21:07:58.738Z,16.20
2018-04-08T21:10:24.469Z,16.24
2018-04-08T21:12:50.261Z,16.26
2018-04-08T21:15:15.969Z,16.18
2018-04-08T21:17:41.697Z,16.06
2018-04-08T21:20:07.446Z,15.98
2018-04-08T21:22:33.191Z,16.02
2018-04-08T21:24:58.942Z,15.88
2018-04-08T21:27:24.674Z,15.95
2018-04-08T21:29:50.426Z,15.87
2018-04-08T21:32:16.166Z,15.87
2018-04-08T21:34:41.923Z,15.79
2018-04-08T21:37:07.650Z,15.78
2018-04-08T21:39:33.397Z,15.75
2018-04-08T21:41:59.126Z,15.65
2018-04-08T21:44:24.892Z,15.61
2018-04-08T21:46:50.665Z,15.48
2018-04-08T21:49:16.385Z,15.58
2018-04-08T21:51:42.118Z,15.58
2018-04-08T21:54:07.862Z,15.64
2018-04-08T21:56:33.581Z,15.61
2018-04-08T21:58:59.333Z,15.55
2018-04-08T22:01:25.061Z,15.45
2018-04-08T22:03:50.810Z,15.38
2018-04-08T22:06:16.554Z,15.33
2018-04-08T22:08:42.269Z,15.27
2018-04-08T22:11:08.012Z,15.29
2018-04-08T22:13:33.745Z,15.29
2018-04-08T22:15:59.495Z,15.27
2018-04-08T22:18:25.223Z,15.25
2018-04-08T22:20:50.959Z,15.19
2018-04-08T22:23:16.691Z,15.17
2018-04-08T22:25:42.426Z,15.16
2018-04-08T22:28:08.165Z,15.13
2018-04-08T22:30:33.902Z,15.07
2018-04-08T22:32:59.642Z,15.10
2018-04-08T22:35:25.370Z,15.08
2018-04-08T22:37:51.118Z,15.09
2018-04-08T22:40:16.850Z,15.03
2018-04-08T22:42:42.589Z,15.04
2018-04-08T22:45:08.327Z,15.18
2018-04-08T22:47:34.073Z,15.18
2018-04-08T22:49:59.830Z,15.11
2018-04-08T22:52:25.583Z,15.01
2018-04-08T22:54:51.334Z,15.09
2018-04-08T22:57:17.088Z,15.21
2018-04-08T22:59:42.841Z,15.14
2018-04-08T23:02:08.582Z,14.98
2018-04-08T23:04:34.314Z,14.99
2018-04-08T23:07:00.053Z,14.99
2018-04-08T23:09:25.794Z,14.93
2018-04-08T23:11:51.539Z,14.91
2018-04-08T23:14:17.265Z,14.86
2018-04-08T23:16:43.006Z,14.76
2018-04-08T23:19:08.742Z,14.80
2018-04-08T23:21:34.486Z,14.92
2018-04-08T23:24:00.234Z,14.84
2018-04-08T23:26:25.961Z,14.80
2018-04-08T23:28:51.712Z,14.82
2018-04-08T23:31:17.450Z,14.86
2018-04-08T23:33:43.180Z,14.80
2018-04-08T23:36:08.921Z,14.88
2018-04-08T23:38:34.655Z,14.80
2018-04-08T23:41:00.414Z,14.88
2018-04-08T23:43:26.146Z,14.87
2018-04-08T23:45:51.898Z,14.90
2018-04-08T23:48:17.648Z,14.86
2018-04-08T23:50:43.378Z,14.80
2018-04-08T23:53:09.129Z,14.76
2018-04-08T23:55:34.886Z,14.64
2018-04-08T23:58:00.637Z,14.60
